MSC Armonia — H8EW — position and weather

sailwx.info

Track history (hours):
 
Tides and Currents Weather Stations Pressure Air Temp Water Temp Dewpoint Dewpoint Depression Visibility Wind Speed Wind Dir Waves Ship Positions

MSC Armonia

Operator: Mediterranean Shipping Company

Last reported at 2019-Sep-17 00:15 UTC. Time now 2019-Sep-19 18:49 UTC.
Position N 25°35' W 079°47'.

Length 275 m; draft 6.8 m.

Type: Ship. MMSI: 357281000.

Date/timePositionNaut miles runAvg speedWind from/ knotsBaromVisibWave heightAir tempDewpointWater temp
2019-Sep-17 00:15N 25°35' W 079°47'414.5
2019-Sep-16 23:59N 25°37' W 079°50'815.9
2019-Sep-16 23:31N 25°42' W 079°57'815.3
2019-Sep-16 23:01N 25°46' W 080°04'510.0
2019-Sep-16 22:30N 25°47' W 080°10'1 1.6
2019-Sep-16 21:59N 25°47' W 080°11'0 0.0
2019-Sep-16 21:29N 25°47' W 080°11'0 0.0
2019-Sep-16 20:59N 25°47' W 080°11'0 0.0
2019-Sep-16 20:26N 25°47' W 080°11'0 0.0
2019-Sep-16 19:59N 25°47' W 080°11'0 0.0
2019-Sep-16 19:29N 25°47' W 080°11'0 0.0
2019-Sep-16 18:59N 25°47' W 080°11'0 0.0
2019-Sep-16 18:29N 25°47' W 080°11'0 0.0
2019-Sep-16 17:59N 25°47' W 080°11'0 0.0
2019-Sep-16 17:29N 25°47' W 080°11'0 0.0
2019-Sep-16 16:59N 25°47' W 080°11'0 0.0
2019-Sep-16 16:29N 25°47' W 080°11'0 0.0
2019-Sep-16 15:59N 25°47' W 080°11'0 0.0
2019-Sep-16 15:29N 25°47' W 080°11'0 0.0
2019-Sep-16 14:59N 25°47' W 080°11'0 0.0
2019-Sep-16 14:29N 25°47' W 080°11'0 0.0
2019-Sep-16 13:59N 25°47' W 080°11'0 0.0
2019-Sep-16 13:29N 25°47' W 080°11'0 0.0
2019-Sep-16 12:59N 25°47' W 080°11'0 0.0
2019-Sep-16 12:29N 25°47' W 080°11'0 0.0
2019-Sep-16 11:59N 25°47' W 080°11'0 0.0
2019-Sep-16 11:29N 25°47' W 080°11'0 0.0
2019-Sep-16 10:59N 25°47' W 080°11'0 0.0
2019-Sep-16 10:29N 25°47' W 080°11'0 0.0
2019-Sep-16 09:59N 25°47' W 080°11'0 1.0
2019-Sep-16 09:30N 25°47' W 080°10'4 8.7
2019-Sep-16 09:01N 25°46' W 080°05'510.6
2019-Sep-16 08:30N 25°45' W 079°59'4 8.7
2019-Sep-16 08:00N 25°41' W 079°57'714.0
2019-Sep-16 07:30N 25°34' W 079°57'  
2019-Sep-14 01:06N 20°32' W 086°57'1 8.9
2019-Sep-14 01:00N 20°31' W 086°57'1 1.3
2019-Sep-14 00:27N 20°31' W 086°57'0 0.0
2019-Sep-14 00:00N 20°31' W 086°57'0 0.0
2019-Sep-13 23:30N 20°31' W 086°57'0 0.0
2019-Sep-13 23:00N 20°31' W 086°57'0 0.0
2019-Sep-13 22:27N 20°31' W 086°57'0 0.0
2019-Sep-13 22:00N 20°31' W 086°57'0 0.0
2019-Sep-13 21:30N 20°31' W 086°57'0 0.0
2019-Sep-13 21:00N 20°31' W 086°57'0 0.0
2019-Sep-13 20:30N 20°31' W 086°57'0 0.0
2019-Sep-13 20:00N 20°31' W 086°57'0 0.0
2019-Sep-13 19:30N 20°31' W 086°57'0 0.0
2019-Sep-13 19:00N 20°31' W 086°57'0 0.0
2019-Sep-13 18:27N 20°31' W 086°57'0 0.0
2019-Sep-13 17:57N 20°31' W 086°57'0 0.0
2019-Sep-13 17:30N 20°31' W 086°57'0 0.0
2019-Sep-13 17:00N 20°31' W 086°57'0 0.0
2019-Sep-13 16:30N 20°31' W 086°57'0 0.0
2019-Sep-13 16:00N 20°31' W 086°57'0 0.0
2019-Sep-13 15:30N 20°31' W 086°57'0 0.0
2019-Sep-13 14:57N 20°31' W 086°57'0 0.0
2019-Sep-13 14:30N 20°31' W 086°57'0 0.0
2019-Sep-13 14:00N 20°31' W 086°57'0 0.0
2019-Sep-13 13:30N 20°31' W 086°57'0 0.0
2019-Sep-13 13:00N 20°31' W 086°57'0 0.0
2019-Sep-13 12:30N 20°31' W 086°57'0 0.0
2019-Sep-13 12:00N 20°31' W 086°57'0 0.6
2019-Sep-13 11:30N 20°31' W 086°58'4 7.8
2019-Sep-13 11:00N 20°29' W 087°01'223 7.2
2019-Sep-12 03:52N 16°46' W 086°51'616.6
2019-Sep-12 03:30N 16°40' W 086°48'816.7
2019-Sep-12 03:01N 16°33' W 086°45'816.9
2019-Sep-12 02:30N 16°25' W 086°42'817.0
2019-Sep-12 02:01N 16°17' W 086°38'4 8.4
2019-Sep-12 01:30N 16°17' W 086°34'2 3.1
2019-Sep-12 00:58N 16°19' W 086°33'0 0.0
2019-Sep-12 00:25N 16°19' W 086°33'0 0.0
2019-Sep-11 23:58N 16°19' W 086°33'0 0.0
2019-Sep-11 23:28N 16°19' W 086°33'0 0.0
2019-Sep-11 23:00N 16°19' W 086°33'0 0.0
2019-Sep-11 22:30N 16°19' W 086°33'0 0.0
2019-Sep-11 22:00N 16°19' W 086°33'0 0.0
2019-Sep-11 21:30N 16°19' W 086°33'0 0.0
2019-Sep-11 21:00N 16°19' W 086°33'0 0.0
2019-Sep-11 20:30N 16°19' W 086°33'0 0.0
2019-Sep-11 20:00N 16°19' W 086°33'0 0.0
2019-Sep-11 19:30N 16°19' W 086°33'0 0.1
2019-Sep-11 19:00N 16°19' W 086°33'4 7.3
2019-Sep-11 18:30N 16°16' W 086°35'612.7
2019-Sep-11 18:00N 16°22' W 086°37'1019.6
2019-Sep-11 17:30N 16°31' W 086°34'1019.1
2019-Sep-11 17:00N 16°41' W 086°32'1019.4
2019-Sep-11 16:30N 16°50' W 086°29'64115.9
2019-Sep-10 00:16N 25°33' W 079°51'412.9
2019-Sep-09 23:58N 25°36' W 079°54'613.0
2019-Sep-09 23:30N 25°41' W 079°59'612.7
2019-Sep-09 23:00N 25°45' W 080°04'5 9.0
2019-Sep-09 22:31N 25°46' W 080°09'2 3.2
2019-Sep-09 22:01N 25°47' W 080°11'0 0.1
2019-Sep-09 21:28N 25°47' W 080°11'0 0.0
2019-Sep-09 20:58N 25°47' W 080°11'0 0.0
2019-Sep-09 20:25N 25°47' W 080°11'0 0.0
2019-Sep-09 19:58N 25°47' W 080°11'0 0.0
2019-Sep-09 19:28N 25°47' W 080°11'0 0.0
2019-Sep-09 18:58N 25°47' W 080°11'0 0.0
2019-Sep-09 18:28N 25°47' W 080°11'0 0.0
2019-Sep-09 17:58N 25°47' W 080°11'0 0.0
2019-Sep-09 17:28N 25°47' W 080°11'0 0.0
2019-Sep-09 16:58N 25°47' W 080°11'0 0.0
2019-Sep-09 16:25N 25°47' W 080°11'0 0.0
2019-Sep-09 15:58N 25°47' W 080°11'0 0.0
2019-Sep-09 15:28N 25°47' W 080°11'0 0.0
2019-Sep-09 14:58N 25°47' W 080°11'0 0.0
2019-Sep-09 14:28N 25°47' W 080°11'0 0.0
2019-Sep-09 13:58N 25°47' W 080°11'0 0.0
2019-Sep-09 13:28N 25°47' W 080°11'0 0.0
2019-Sep-09 12:58N 25°47' W 080°11'0 0.0
2019-Sep-09 12:28N 25°47' W 080°11'0 0.0
2019-Sep-09 11:58N 25°47' W 080°11'0 0.0
2019-Sep-09 11:28N 25°47' W 080°11'0 0.0
2019-Sep-09 10:58N 25°47' W 080°11'0 0.0
2019-Sep-09 10:28N 25°47' W 080°11'0 0.0
2019-Sep-09 09:58N 25°47' W 080°11'0 0.6
2019-Sep-09 09:30N 25°47' W 080°10'4 8.6
2019-Sep-09 09:01N 25°46' W 080°06'5 9.9
2019-Sep-09 08:30N 25°44' W 080°01'917.2
2019-Sep-09 08:00N 25°35' W 080°00'  
Track history (hours):
 
Tides and Currents Weather Stations Pressure Air Temp Water Temp Dewpoint Dewpoint Depression Visibility Wind Speed Wind Dir Waves Ship Positions

MSC Armonia

Operator: Mediterranean Shipping Company

Last reported at 2019-Sep-17 00:15 UTC. Time now 2019-Sep-19 18:49 UTC.
Position N 25°35' W 079°47'.

Length 275 m; draft 6.8 m.

Type: Ship. MMSI: 357281000.

Date/timePositionNaut miles runAvg speedWind from/ knotsBaromVisibWave heightAir tempDewpointWater temp
2019-Sep-17 00:15N 25°35' W 079°47'414.5
2019-Sep-16 23:59N 25°37' W 079°50'815.9
2019-Sep-16 23:31N 25°42' W 079°57'815.3
2019-Sep-16 23:01N 25°46' W 080°04'510.0
2019-Sep-16 22:30N 25°47' W 080°10'1 1.6
2019-Sep-16 21:59N 25°47' W 080°11'0 0.0
2019-Sep-16 21:29N 25°47' W 080°11'0 0.0
2019-Sep-16 20:59N 25°47' W 080°11'0 0.0
2019-Sep-16 20:26N 25°47' W 080°11'0 0.0
2019-Sep-16 19:59N 25°47' W 080°11'0 0.0
2019-Sep-16 19:29N 25°47' W 080°11'0 0.0
2019-Sep-16 18:59N 25°47' W 080°11'0 0.0
2019-Sep-16 18:29N 25°47' W 080°11'0 0.0
2019-Sep-16 17:59N 25°47' W 080°11'0 0.0
2019-Sep-16 17:29N 25°47' W 080°11'0 0.0
2019-Sep-16 16:59N 25°47' W 080°11'0 0.0
2019-Sep-16 16:29N 25°47' W 080°11'0 0.0
2019-Sep-16 15:59N 25°47' W 080°11'0 0.0
2019-Sep-16 15:29N 25°47' W 080°11'0 0.0
2019-Sep-16 14:59N 25°47' W 080°11'0 0.0
2019-Sep-16 14:29N 25°47' W 080°11'0 0.0
2019-Sep-16 13:59N 25°47' W 080°11'0 0.0
2019-Sep-16 13:29N 25°47' W 080°11'0 0.0
2019-Sep-16 12:59N 25°47' W 080°11'0 0.0
2019-Sep-16 12:29N 25°47' W 080°11'0 0.0
2019-Sep-16 11:59N 25°47' W 080°11'0 0.0
2019-Sep-16 11:29N 25°47' W 080°11'0 0.0
2019-Sep-16 10:59N 25°47' W 080°11'0 0.0
2019-Sep-16 10:29N 25°47' W 080°11'0 0.0
2019-Sep-16 09:59N 25°47' W 080°11'0 1.0
2019-Sep-16 09:30N 25°47' W 080°10'4 8.7
2019-Sep-16 09:01N 25°46' W 080°05'510.6
2019-Sep-16 08:30N 25°45' W 079°59'4 8.7
2019-Sep-16 08:00N 25°41' W 079°57'714.0
2019-Sep-16 07:30N 25°34' W 079°57'  
2019-Sep-14 01:06N 20°32' W 086°57'1 8.9
2019-Sep-14 01:00N 20°31' W 086°57'1 1.3
2019-Sep-14 00:27N 20°31' W 086°57'0 0.0
2019-Sep-14 00:00N 20°31' W 086°57'0 0.0
2019-Sep-13 23:30N 20°31' W 086°57'0 0.0
2019-Sep-13 23:00N 20°31' W 086°57'0 0.0
2019-Sep-13 22:27N 20°31' W 086°57'0 0.0
2019-Sep-13 22:00N 20°31' W 086°57'0 0.0
2019-Sep-13 21:30N 20°31' W 086°57'0 0.0
2019-Sep-13 21:00N 20°31' W 086°57'0 0.0
2019-Sep-13 20:30N 20°31' W 086°57'0 0.0
2019-Sep-13 20:00N 20°31' W 086°57'0 0.0
2019-Sep-13 19:30N 20°31' W 086°57'0 0.0
2019-Sep-13 19:00N 20°31' W 086°57'0 0.0
2019-Sep-13 18:27N 20°31' W 086°57'0 0.0
2019-Sep-13 17:57N 20°31' W 086°57'0 0.0
2019-Sep-13 17:30N 20°31' W 086°57'0 0.0
2019-Sep-13 17:00N 20°31' W 086°57'0 0.0
2019-Sep-13 16:30N 20°31' W 086°57'0 0.0
2019-Sep-13 16:00N 20°31' W 086°57'0 0.0
2019-Sep-13 15:30N 20°31' W 086°57'0 0.0
2019-Sep-13 14:57N 20°31' W 086°57'0 0.0
2019-Sep-13 14:30N 20°31' W 086°57'0 0.0
2019-Sep-13 14:00N 20°31' W 086°57'0 0.0
2019-Sep-13 13:30N 20°31' W 086°57'0 0.0
2019-Sep-13 13:00N 20°31' W 086°57'0 0.0
2019-Sep-13 12:30N 20°31' W 086°57'0 0.0
2019-Sep-13 12:00N 20°31' W 086°57'0 0.6
2019-Sep-13 11:30N 20°31' W 086°58'4 7.8
2019-Sep-13 11:00N 20°29' W 087°01'223 7.2
2019-Sep-12 03:52N 16°46' W 086°51'616.6
2019-Sep-12 03:30N 16°40' W 086°48'816.7
2019-Sep-12 03:01N 16°33' W 086°45'816.9
2019-Sep-12 02:30N 16°25' W 086°42'817.0
2019-Sep-12 02:01N 16°17' W 086°38'4 8.4
2019-Sep-12 01:30N 16°17' W 086°34'2 3.1
2019-Sep-12 00:58N 16°19' W 086°33'0 0.0
2019-Sep-12 00:25N 16°19' W 086°33'0 0.0
2019-Sep-11 23:58N 16°19' W 086°33'0 0.0
2019-Sep-11 23:28N 16°19' W 086°33'0 0.0
2019-Sep-11 23:00N 16°19' W 086°33'0 0.0
2019-Sep-11 22:30N 16°19' W 086°33'0 0.0
2019-Sep-11 22:00N 16°19' W 086°33'0 0.0
2019-Sep-11 21:30N 16°19' W 086°33'0 0.0
2019-Sep-11 21:00N 16°19' W 086°33'0 0.0
2019-Sep-11 20:30N 16°19' W 086°33'0 0.0
2019-Sep-11 20:00N 16°19' W 086°33'0 0.0
2019-Sep-11 19:30N 16°19' W 086°33'0 0.1
2019-Sep-11 19:00N 16°19' W 086°33'4 7.3
2019-Sep-11 18:30N 16°16' W 086°35'612.7
2019-Sep-11 18:00N 16°22' W 086°37'1019.6
2019-Sep-11 17:30N 16°31' W 086°34'1019.1
2019-Sep-11 17:00N 16°41' W 086°32'1019.4
2019-Sep-11 16:30N 16°50' W 086°29'64115.9
2019-Sep-10 00:16N 25°33' W 079°51'412.9
2019-Sep-09 23:58N 25°36' W 079°54'613.0
2019-Sep-09 23:30N 25°41' W 079°59'612.7
2019-Sep-09 23:00N 25°45' W 080°04'5 9.0
2019-Sep-09 22:31N 25°46' W 080°09'2 3.2
2019-Sep-09 22:01N 25°47' W 080°11'0 0.1
2019-Sep-09 21:28N 25°47' W 080°11'0 0.0
2019-Sep-09 20:58N 25°47' W 080°11'0 0.0
2019-Sep-09 20:25N 25°47' W 080°11'0 0.0
2019-Sep-09 19:58N 25°47' W 080°11'0 0.0
2019-Sep-09 19:28N 25°47' W 080°11'0 0.0
2019-Sep-09 18:58N 25°47' W 080°11'0 0.0
2019-Sep-09 18:28N 25°47' W 080°11'0 0.0
2019-Sep-09 17:58N 25°47' W 080°11'0 0.0
2019-Sep-09 17:28N 25°47' W 080°11'0 0.0
2019-Sep-09 16:58N 25°47' W 080°11'0 0.0
2019-Sep-09 16:25N 25°47' W 080°11'0 0.0
2019-Sep-09 15:58N 25°47' W 080°11'0 0.0
2019-Sep-09 15:28N 25°47' W 080°11'0 0.0
2019-Sep-09 14:58N 25°47' W 080°11'0 0.0
2019-Sep-09 14:28N 25°47' W 080°11'0 0.0
2019-Sep-09 13:58N 25°47' W 080°11'0 0.0
2019-Sep-09 13:28N 25°47' W 080°11'0 0.0
2019-Sep-09 12:58N 25°47' W 080°11'0 0.0
2019-Sep-09 12:28N 25°47' W 080°11'0 0.0
2019-Sep-09 11:58N 25°47' W 080°11'0 0.0
2019-Sep-09 11:28N 25°47' W 080°11'0 0.0
2019-Sep-09 10:58N 25°47' W 080°11'0 0.0
2019-Sep-09 10:28N 25°47' W 080°11'0 0.0
2019-Sep-09 09:58N 25°47' W 080°11'0 0.6
2019-Sep-09 09:30N 25°47' W 080°10'4 8.6
2019-Sep-09 09:01N 25°46' W 080°06'5 9.9
2019-Sep-09 08:30N 25°44' W 080°01'917.2
2019-Sep-09 08:00N 25°35' W 080°00'  

Dump ship's entire track history